Time;durP1;ratioP1;P1;durP2;ratioP2;P2;SDS_P1;SDS_P2;PMS_P1;PMS_P2;Temp;Humidity;BMP_temperature;BMP_pressure;BME280_temperature;BME280_humidity;BME280_pressure;Samples;Min_cycle;Max_cycle;Signal;HPM_P1;HPM_P2
2022/11/24 00:00:12;;;;;;;24.50;16.63;;;;;;;10.38;65.41;99858.88;4989903;28;120150;-75
2022/11/24 00:02:38;;;;;;;29.08;18.08;;;;;;;10.39;65.36;99859.63;4987687;28;119800;-75
2022/11/24 00:05:04;;;;;;;24.80;17.10;;;;;;;10.37;65.73;99851.13;4985846;28;119531;-75
2022/11/24 00:07:30;;;;;;;25.92;18.10;;;;;;;10.35;65.48;99846.09;4986127;28;119722;-75
2022/11/24 00:09:56;;;;;;;29.55;17.85;;;;;;;10.39;65.69;99848.66;4984802;28;119359;-75
2022/11/24 00:12:22;;;;;;;26.07;17.57;;;;;;;10.36;65.97;99847.63;4983528;28;119700;-75
2022/11/24 00:14:47;;;;;;;25.07;17.17;;;;;;;10.41;65.71;99852.47;4969835;28;119427;-75
2022/11/24 00:17:13;;;;;;;27.40;16.95;;;;;;;10.44;65.33;99859.75;4987073;28;119929;-75
2022/11/24 00:19:40;;;;;;;29.80;18.92;;;;;;;10.43;65.92;99863.72;4977525;28;119874;-75
2022/11/24 00:22:06;;;;;;;26.73;16.88;;;;;;;10.47;65.71;99863.56;4967297;28;119918;-75
2022/11/24 00:24:41;;;;;;;27.60;17.80;;;;;;;10.50;65.52;99864.59;4973301;28;119137;-75
2022/11/24 00:27:07;;;;;;;28.25;17.42;;;;;;;10.48;65.38;99853.34;4987311;28;119628;-75
2022/11/24 00:29:33;;;;;;;27.02;16.38;;;;;;;10.55;65.31;99856.47;4987246;28;119657;-75
2022/11/24 00:32:00;;;;;;;23.70;16.60;;;;;;;10.56;65.30;99857.22;4955440;28;120638;-75
2022/11/24 00:34:26;;;;;;;26.60;16.87;;;;;;;10.51;65.38;99857.88;4998480;28;119413;-75
2022/11/24 00:36:52;;;;;;;23.05;16.58;;;;;;;10.57;65.57;99866.97;4995964;28;119908;-75
2022/11/24 00:39:18;;;;;;;26.30;16.90;;;;;;;10.54;65.65;99851.44;4971561;28;120125;-75
2022/11/24 00:41:43;;;;;;;25.15;16.30;;;;;;;10.54;65.46;99862.44;4995658;28;119301;-75
2022/11/24 00:44:09;;;;;;;25.23;16.50;;;;;;;10.55;65.31;99861.94;4955488;28;122016;-75
2022/11/24 00:46:52;;;;;;;26.85;16.85;;;;;;;10.55;65.67;99861.94;4970575;28;119397;-75
2022/11/24 00:49:18;;;;;;;22.90;15.50;;;;;;;10.57;65.68;99867.72;4988289;28;119478;-75
2022/11/24 00:51:43;;;;;;;22.23;15.55;;;;;;;10.58;65.68;99863.00;4974110;28;120119;-75
2022/11/24 00:54:09;;;;;;;25.10;16.85;;;;;;;10.60;65.92;99871.50;4967181;28;119437;-75
2022/11/24 00:56:36;;;;;;;22.77;15.68;;;;;;;10.64;65.99;99869.34;4977580;28;121309;-75
2022/11/24 00:59:02;;;;;;;24.40;15.38;;;;;;;10.63;65.58;99871.31;4958346;28;122878;-75
2022/11/24 01:01:32;;;;;;;22.60;14.70;;;;;;;10.66;66.00;99880.63;4991070;28;119603;-75
2022/11/24 01:04:02;;;;;;;23.95;14.88;;;;;;;10.64;65.73;99877.56;4993242;28;119727;-75
2022/11/24 01:06:31;;;;;;;24.93;14.97;;;;;;;10.70;66.14;99881.19;4945802;28;120301;-76
2022/11/24 01:08:57;;;;;;;24.08;14.93;;;;;;;10.72;65.88;99878.72;4993304;28;119742;-75
2022/11/24 01:12:00;;;;;;;23.27;14.77;;;;;;;10.74;65.59;99881.75;4995446;28;120096;-75
2022/11/24 01:14:18;;;;;;;20.60;14.30;;;;;;;10.63;65.87;99876.81;4991643;28;119554;-75
2022/11/24 01:16:44;;;;;;;22.83;14.33;;;;;;;10.71;66.16;99882.69;4989607;28;119404;-75
2022/11/24 01:19:10;;;;;;;20.92;13.90;;;;;;;10.73;66.06;99883.00;4997932;28;119838;-75
2022/11/24 01:21:36;;;;;;;19.20;13.33;;;;;;;10.75;65.75;99884.03;4973067;28;119468;-76
2022/11/24 01:24:02;;;;;;;21.27;13.88;;;;;;;10.76;66.05;99891.03;4973035;28;119703;-76
2022/11/24 01:26:28;;;;;;;22.08;13.80;;;;;;;10.70;65.93;99886.66;4990426;28;119600;-75
2022/11/24 01:28:55;;;;;;;22.38;13.80;;;;;;;10.75;66.22;99894.25;4960561;28;119636;-75
2022/11/24 01:31:24;;;;;;;24.47;14.23;;;;;;;10.76;66.22;99895.75;4976136;28;119440;-75
2022/11/24 01:33:50;;;;;;;20.20;14.05;;;;;;;10.78;66.37;99893.31;4991266;28;119628;-75
2022/11/24 01:36:15;;;;;;;21.00;13.20;;;;;;;10.82;65.79;99896.63;4994783;28;119550;-75
2022/11/24 01:38:41;;;;;;;23.90;13.87;;;;;;;10.82;66.07;99893.88;4990529;28;120057;-75
2022/11/24 01:41:16;;;;;;;19.77;13.40;;;;;;;10.79;66.06;99888.56;4984555;28;119383;-75
2022/11/24 01:43:44;;;;;;;20.63;13.52;;;;;;;10.82;65.60;99882.91;4989411;28;119496;-75
2022/11/24 01:46:28;;;;;;;24.42;14.50;;;;;;;10.83;66.07;99889.91;4964026;28;120403;-75
2022/11/24 01:49:07;;;;;;;20.23;13.97;;;;;;;10.84;65.81;99905.13;4976268;28;119805;-75
2022/11/24 01:51:35;;;;;;;21.20;14.13;;;;;;;10.85;65.96;99912.13;4972442;28;120068;-75
2022/11/24 01:54:19;;;;;;;24.40;14.48;;;;;;;10.87;66.07;99917.91;4989604;28;119475;-75
2022/11/24 01:56:48;;;;;;;22.92;14.20;;;;;;;10.86;65.75;99912.88;4970840;28;119892;-75
2022/11/24 01:59:17;;;;;;;22.65;14.35;;;;;;;10.87;65.76;99920.66;4966959;28;119824;-75
2022/11/24 02:01:45;;;;;;;23.93;14.90;;;;;;;10.89;65.85;99920.97;4990242;28;119391;-75
2022/11/24 02:04:15;;;;;;;24.38;15.20;;;;;;;10.87;65.96;99922.63;4971988;28;119295;-75
2022/11/24 02:06:44;;;;;;;24.20;14.95;;;;;;;10.91;66.30;99917.75;4974578;28;121660;-75
2022/11/24 02:09:25;;;;;;;22.85;14.70;;;;;;;10.92;65.87;99924.75;5001392;28;119166;-75
2022/11/24 02:11:53;;;;;;;25.20;15.38;;;;;;;10.93;66.27;99935.25;4971838;28;119775;-75
2022/11/24 02:14:22;;;;;;;20.55;14.48;;;;;;;10.95;65.79;99940.25;4993715;28;120043;-75
2022/11/24 02:16:50;;;;;;;21.67;14.80;;;;;;;10.94;65.73;99942.25;4990078;28;119215;-75
2022/11/24 02:19:46;;;;;;;21.88;15.23;;;;;;;10.95;65.86;99946.50;4997740;28;120042;-75
2022/11/24 02:22:35;;;;;;;25.35;15.35;;;;;;;10.96;65.67;99948.03;4986812;28;119148;-75
2022/11/24 02:25:10;;;;;;;23.20;15.27;;;;;;;10.95;65.77;99951.25;4990077;28;119584;-75
2022/11/24 02:27:36;;;;;;;27.15;15.75;;;;;;;10.92;65.89;99939.22;4970254;28;119660;-75
2022/11/24 02:30:02;;;;;;;25.20;16.47;;;;;;;10.99;65.99;99954.56;4989969;28;119317;-75
2022/11/24 02:32:32;;;;;;;25.53;16.20;;;;;;;10.98;66.03;99945.56;4989729;28;120236;-75
2022/11/24 02:35:03;;;;;;;23.65;16.10;;;;;;;10.96;66.02;99948.03;4971744;28;120784;-75
2022/11/24 02:37:29;;;;;;;25.80;16.92;;;;;;;11.01;66.35;99954.84;4984007;28;119816;-75
2022/11/24 02:39:55;;;;;;;25.60;16.67;;;;;;;11.01;65.92;99954.84;4989641;28;119272;-75
2022/11/24 02:42:22;;;;;;;25.73;16.85;;;;;;;11.00;66.25;99954.06;4972025;28;119709;-75
2022/11/24 02:44:53;;;;;;;26.55;17.95;;;;;;;10.96;66.11;99948.03;4971883;28;119651;-75
2022/11/24 02:47:19;;;;;;;25.70;17.00;;;;;;;11.00;66.10;99958.81;4983955;28;119527;-75
2022/11/24 02:49:45;;;;;;;27.42;17.92;;;;;;;11.01;66.31;99961.09;4971292;28;119699;-75
2022/11/24 02:52:11;;;;;;;27.23;18.52;;;;;;;10.99;66.10;99954.56;4955032;28;119675;-75
2022/11/24 02:54:36;;;;;;;30.70;19.60;;;;;;;10.99;66.14;99958.06;4978686;28;120484;-75
2022/11/24 02:57:02;;;;;;;30.20;19.43;;;;;;;10.85;66.28;99944.28;4988506;28;119797;-75
2022/11/24 02:59:28;;;;;;;30.17;20.17;;;;;;;10.90;66.58;99955.41;4989213;28;119428;-75
2022/11/24 03:01:54;;;;;;;33.53;20.60;;;;;;;11.00;67.02;99962.31;4980152;28;118808;-75
2022/11/24 03:04:20;;;;;;;29.30;20.77;;;;;;;11.02;66.42;99973.56;4996685;28;119572;-75
2022/11/24 03:06:45;;;;;;;33.53;21.40;;;;;;;11.07;66.46;99970.16;4933943;28;120621;-75
2022/11/24 03:09:11;;;;;;;29.80;21.23;;;;;;;11.11;66.59;99967.25;4984383;28;119694;-75
2022/11/24 03:11:37;;;;;;;31.45;20.80;;;;;;;11.12;66.53;99970.75;4989462;28;119530;-75
2022/11/24 03:14:03;;;;;;;32.53;22.17;;;;;;;11.11;66.53;99969.22;4988346;28;119665;-75
2022/11/24 03:16:29;;;;;;;31.30;22.25;;;;;;;11.09;66.27;99966.97;4989057;28;119348;-75
2022/11/24 03:18:55;;;;;;;35.50;21.75;;;;;;;11.10;66.73;99975.94;4994505;28;119970;-75
2022/11/24 03:21:21;;;;;;;35.03;22.75;;;;;;;11.05;66.64;99966.38;4955386;28;119722;-75
2022/11/24 03:23:47;;;;;;;38.20;24.73;;;;;;;11.10;67.16;99970.47;4989055;28;119798;-75
2022/11/24 03:26:15;;;;;;;35.33;23.97;;;;;;;11.13;66.71;99972.28;4970522;28;119917;-75
2022/11/24 03:28:41;;;;;;;39.47;24.33;;;;;;;11.15;67.14;99967.84;4988916;28;119906;-75
2022/11/24 03:31:08;;;;;;;38.47;24.42;;;;;;;11.19;66.70;99970.41;4961897;28;120105;-75
2022/11/24 03:33:34;;;;;;;39.78;24.77;;;;;;;11.18;66.44;99969.63;4976567;28;120295;-75
2022/11/24 03:36:00;;;;;;;38.67;25.52;;;;;;;11.20;66.78;99982.88;4988321;28;119792;-75
2022/11/24 03:38:26;;;;;;;37.60;25.00;;;;;;;11.20;66.61;99982.88;4959942;28;119792;-75
2022/11/24 03:41:12;;;;;;;42.33;25.50;;;;;;;11.22;66.68;99999.66;4976820;28;120272;-75
2022/11/24 03:43:38;;;;;;;47.88;25.17;;;;;;;11.18;66.51;99988.84;4974235;28;119689;-77
2022/11/24 03:46:04;;;;;;;41.03;25.98;;;;;;;11.25;66.43;99995.94;4960105;28;120626;-75
2022/11/24 03:48:30;;;;;;;41.85;25.50;;;;;;;11.30;66.47;99998.03;4963308;28;120329;-75
2022/11/24 03:50:58;;;;;;;42.08;25.55;;;;;;;11.31;66.28;99994.81;4967458;28;119686;-75
2022/11/24 03:53:48;;;;;;;43.10;26.23;;;;;;;11.31;66.19;99997.56;4981502;28;120027;-75
2022/11/24 03:56:15;;;;;;;39.88;26.15;;;;;;;11.32;66.28;99998.31;4969955;28;119798;-75
2022/11/24 03:58:43;;;;;;;38.55;26.20;;;;;;;11.33;66.34;100003.34;4984367;28;120089;-75
2022/11/24 04:01:09;;;;;;;43.07;26.93;;;;;;;11.35;66.27;100000.88;4980068;28;119924;-75
2022/11/24 04:03:35;;;;;;;42.47;26.58;;;;;;;11.35;66.25;100002.88;4986189;28;119490;-75
2022/11/24 04:06:14;;;;;;;42.28;26.58;;;;;;;11.30;66.32;99998.03;4966363;28;120706;-74
2022/11/24 04:08:40;;;;;;;43.15;26.60;;;;;;;11.32;66.44;99998.31;4979694;28;119480;-75
2022/11/24 04:11:06;;;;;;;42.00;26.10;;;;;;;11.33;66.27;100005.31;4989615;28;119419;-76
2022/11/24 04:13:31;;;;;;;44.47;26.63;;;;;;;11.35;66.33;100009.13;4989920;28;119789;-75
2022/11/24 04:15:57;;;;;;;40.40;26.33;;;;;;;11.36;66.33;100009.91;4991266;28;120186;-75
2022/11/24 04:18:25;;;;;;;41.45;26.45;;;;;;;11.37;66.11;100008.66;4973357;28;119475;-76
2022/11/24 04:20:51;;;;;;;43.27;26.30;;;;;;;11.35;66.34;100016.59;4973199;28;119865;-75
2022/11/24 04:23:19;;;;;;;45.25;26.58;;;;;;;11.37;66.42;100025.91;4987458;28;120111;-75
2022/11/24 04:25:44;;;;;;;44.97;25.87;;;;;;;11.39;66.48;100028.19;4960866;28;120139;-75
2022/11/24 04:28:10;;;;;;;40.63;25.15;;;;;;;11.40;65.98;100032.44;4984042;28;119754;-75
2022/11/24 04:30:43;;;;;;;39.47;25.92;;;;;;;11.37;66.31;100025.91;4958096;28;119689;-74
2022/11/24 04:33:09;;;;;;;41.25;25.48;;;;;;;11.42;66.34;100035.47;4989424;28;119851;-75
2022/11/24 04:35:34;;;;;;;36.15;25.20;;;;;;;11.45;66.00;100039.25;4990572;28;119603;-75
2022/11/24 04:38:03;;;;;;;41.15;26.25;;;;;;;11.45;65.87;100042.75;4969835;28;119429;-75
2022/11/24 04:40:29;;;;;;;42.50;26.95;;;;;;;11.43;66.15;100045.22;4986374;28;120083;-75
2022/11/24 04:42:55;;;;;;;43.43;27.60;;;;;;;11.42;66.13;100051.19;4979943;28;119458;-75
2022/11/24 04:45:22;;;;;;;38.85;26.08;;;;;;;11.43;66.27;100052.69;4992583;28;119545;-75
2022/11/24 04:47:47;;;;;;;43.08;28.27;;;;;;;11.38;66.07;100048.63;4995300;28;119993;-75
2022/11/24 04:50:13;;;;;;;44.65;28.25;;;;;;;11.43;66.09;100045.22;4992522;28;119285;-75
2022/11/24 04:52:39;;;;;;;42.17;27.95;;;;;;;11.43;66.46;100052.69;4991632;28;119526;-75
2022/11/24 04:55:05;;;;;;;45.83;27.97;;;;;;;11.30;66.09;100028.25;4992902;28;120532;-75
2022/11/24 04:57:31;;;;;;;42.17;28.00;;;;;;;11.41;66.23;100044.94;4988384;28;119465;-75
2022/11/24 04:59:56;;;;;;;45.72;29.20;;;;;;;11.42;66.18;100057.44;4972432;28;120948;-74
2022/11/24 05:02:22;;;;;;;42.75;28.13;;;;;;;11.43;66.00;100064.44;4989271;28;119479;-76
2022/11/24 05:04:49;;;;;;;46.15;28.30;;;;;;;11.44;66.49;100062.44;4992381;28;119711;-77
2022/11/24 05:07:15;;;;;;;40.33;27.77;;;;;;;11.44;66.07;100065.19;4987909;28;119892;-75
2022/11/24 05:12:30;;;;;;;45.53;26.85;;;;;;;11.43;66.38;100071.91;4990197;28;119440;-75
2022/11/24 05:15:03;;;;;;;42.35;28.00;;;;;;;11.46;66.53;100070.97;4979837;28;119686;-75
2022/11/24 05:17:35;;;;;;;42.22;27.20;;;;;;;11.45;66.58;100072.97;4984188;28;119503;-75
2022/11/24 05:20:01;;;;;;;39.38;27.35;;;;;;;11.50;66.24;100085.28;4986612;28;119995;-75
2022/11/24 05:22:28;;;;;;;42.38;27.83;;;;;;;11.48;66.37;100085.75;4966841;28;119733;-75
2022/11/24 05:24:54;;;;;;;42.42;27.35;;;;;;;11.49;66.28;100079.03;4971457;28;119229;-75
2022/11/24 05:27:23;;;;;;;41.90;27.97;;;;;;;11.46;65.93;100088.22;4985145;28;119813;-75
2022/11/24 05:29:49;;;;;;;40.92;27.77;;;;;;;11.50;66.21;100088.78;4983439;28;119288;-74
2022/11/24 05:32:14;;;;;;;41.70;28.83;;;;;;;11.51;nan;100098.53;4996400;28;119667;-75
2022/11/24 05:34:40;;;;;;;42.47;28.17;;;;;;;11.50;66.13;100097.03;4989562;28;119515;-75
2022/11/24 05:37:07;;;;;;;43.60;28.90;;;;;;;11.52;66.23;100107.53;4988583;28;119522;-75
2022/11/24 05:39:36;;;;;;;43.95;28.25;;;;;;;11.48;65.94;100104.22;4973811;28;119580;-75
2022/11/24 05:42:39;;;;;;;42.53;28.40;;;;;;;11.51;66.43;100111.50;4989740;28;119853;-75
2022/11/24 05:44:49;;;;;;;44.92;28.55;;;;;;;11.52;66.31;100113.03;5003005;28;119549;-75
2022/11/24 05:47:15;;;;;;;42.17;27.40;;;;;;;11.55;66.20;100115.59;4971817;28;119831;-75
2022/11/24 05:49:41;;;;;;;42.83;27.42;;;;;;;11.57;66.29;100118.63;4967705;28;119588;-77
2022/11/24 05:52:07;;;;;;;41.05;26.80;;;;;;;11.60;66.06;100119.69;4986649;28;119444;-75
2022/11/24 05:54:33;;;;;;;45.40;27.58;;;;;;;11.61;66.00;100126.72;4993150;28;119585;-75
2022/11/24 05:56:58;;;;;;;38.60;27.70;;;;;;;11.62;66.09;100119.97;5000456;28;119693;-75
2022/11/24 05:59:24;;;;;;;41.80;27.03;;;;;;;11.63;66.15;100119.50;4987611;28;119655;-75
2022/11/24 06:01:50;;;;;;;41.17;27.92;;;;;;;11.66;66.18;100124.06;4971501;28;119803;-75
2022/11/24 06:04:15;;;;;;;38.47;26.75;;;;;;;11.66;65.85;100134.28;4972998;28;119349;-75
2022/11/24 06:06:41;;;;;;;42.33;28.70;;;;;;;11.66;66.13;100134.28;4974735;28;119886;-75
2022/11/24 06:09:07;;;;;;;42.80;27.40;;;;;;;11.66;65.95;100135.03;4976021;28;119322;-75
2022/11/24 06:11:33;;;;;;;41.60;28.17;;;;;;;11.66;66.17;100140.53;4989331;28;119432;-75
2022/11/24 06:13:59;;;;;;;42.13;28.95;;;;;;;11.66;66.07;100140.53;4976156;28;119858;-75
2022/11/24 06:16:25;;;;;;;44.92;29.13;;;;;;;11.67;65.87;100150.31;4989877;28;119629;-75
2022/11/24 06:18:50;;;;;;;46.78;28.77;;;;;;;11.63;66.43;100141.47;4993641;28;119342;-74
2022/11/24 06:21:16;;;;;;;46.60;29.23;;;;;;;11.66;66.02;100142.53;4993411;28;119291;-75
2022/11/24 06:23:42;;;;;;;41.57;29.00;;;;;;;11.66;66.19;100146.03;4976742;28;119840;-75
2022/11/24 06:26:08;;;;;;;47.67;29.67;;;;;;;11.70;66.43;100151.34;4970643;28;119775;-75
2022/11/24 06:28:35;;;;;;;46.90;30.40;;;;;;;11.69;65.68;100152.56;4987357;28;119467;-75
2022/11/24 06:31:02;;;;;;;45.88;29.90;;;;;;;11.64;66.32;100140.25;4989291;28;119346;-75
2022/11/24 06:33:35;;;;;;;43.63;29.67;;;;;;;11.71;66.21;100149.34;4988272;28;119827;-75
2022/11/24 06:36:06;;;;;;;49.47;30.00;;;;;;;11.71;66.15;100152.88;4992534;28;119404;-75
2022/11/24 06:38:34;;;;;;;52.90;30.85;;;;;;;11.72;66.12;100153.63;4985561;28;119648;-75
2022/11/24 06:41:05;;;;;;;46.50;30.55;;;;;;;11.73;66.22;100155.13;4966090;28;119516;-75
2022/11/24 06:43:49;;;;;;;51.95;32.05;;;;;;;11.73;66.37;100160.63;4979216;28;119315;-75
2022/11/24 06:46:19;;;;;;;52.47;32.55;;;;;;;11.72;66.48;100159.88;4967388;28;119663;-75
2022/11/24 06:48:48;;;;;;;57.85;33.92;;;;;;;11.73;66.15;100158.66;4989091;28;119270;-75
2022/11/24 06:51:14;;;;;;;54.28;33.25;;;;;;;11.73;66.33;100166.13;4971603;28;121043;-75
2022/11/24 06:53:40;;;;;;;55.43;33.53;;;;;;;11.73;66.68;100166.13;4989236;28;119601;-74
2022/11/24 06:56:11;;;;;;;63.00;34.25;;;;;;;11.77;66.45;100180.44;4941429;28;119651;-75
2022/11/24 06:58:55;;;;;;;58.60;34.20;;;;;;;11.78;66.72;100173.72;4987098;28;119577;-75
2022/11/24 07:01:28;;;;;;;62.83;36.10;;;;;;;11.73;66.67;100166.88;4976746;28;119428;-75
2022/11/24 07:03:56;;;;;;;66.63;35.88;;;;;;;11.75;66.55;100177.41;4976961;28;119912;-75
2022/11/24 07:06:23;;;;;;;68.07;35.88;;;;;;;11.78;66.55;100180.00;4986425;28;119696;-75
2022/11/24 07:08:50;;;;;;;65.20;36.00;;;;;;;11.80;66.56;100183.03;4988288;28;120467;-75
2022/11/24 07:11:20;;;;;;;63.42;35.38;;;;;;;11.81;66.24;100172.78;4981772;28;119420;-75
2022/11/24 07:13:47;;;;;;;59.47;35.33;;;;;;;11.82;66.15;100185.31;4986374;28;119255;-75
2022/11/24 07:16:19;;;;;;;70.38;36.90;;;;;;;11.83;66.49;100195.84;4968319;28;119434;-75
2022/11/24 07:18:50;;;;;;;66.80;36.53;;;;;;;11.82;66.38;100190.78;4991632;28;119149;-75
2022/11/24 07:21:16;;;;;;;60.72;35.58;;;;;;;11.83;66.59;100195.84;4992759;28;119728;-75
2022/11/24 07:23:42;;;;;;;68.63;37.20;;;;;;;11.84;66.61;100210.34;4980453;28;119289;-75
2022/11/24 07:26:09;;;;;;;69.68;37.00;;;;;;;11.85;66.70;100214.63;4985201;28;119661;-75
2022/11/24 07:28:36;;;;;;;77.30;37.87;;;;;;;11.86;66.62;100218.88;4958008;28;119496;-75
2022/11/24 07:31:07;;;;;;;72.77;37.63;;;;;;;11.86;66.51;100216.91;4965414;28;119926;-75
2022/11/24 07:33:53;;;;;;;73.78;37.42;;;;;;;11.86;66.76;100227.13;4989229;28;120305;-75
2022/11/24 07:36:22;;;;;;;64.22;36.78;;;;;;;11.89;66.83;100228.94;4948024;28;119653;-75
2022/11/24 07:38:49;;;;;;;73.30;37.40;;;;;;;11.87;66.62;100221.16;4984952;28;119884;-75
2022/11/24 07:41:24;;;;;;;68.68;38.13;;;;;;;11.92;66.54;100230.72;4983304;28;120005;-75
2022/11/24 07:43:50;;;;;;;75.57;37.83;;;;;;;11.94;66.33;100236.53;4971604;28;119914;-75
2022/11/24 07:46:18;;;;;;;73.57;38.30;;;;;;;11.95;66.35;100244.28;4985117;28;120014;-75
2022/11/24 07:48:45;;;;;;;73.00;37.78;;;;;;;11.94;66.49;100239.28;4985186;28;119851;-75
2022/11/24 07:51:10;;;;;;;66.03;37.40;;;;;;;11.92;66.36;100238.97;4985443;28;119734;-75
2022/11/24 07:53:37;;;;;;;69.45;37.53;;;;;;;11.99;66.44;100257.84;4965809;28;119721;-75
2022/11/24 07:56:05;;;;;;;76.47;37.87;;;;;;;11.98;66.42;100262.59;4985141;28;119805;-75
2022/11/24 07:58:33;;;;;;;71.53;36.63;;;;;;;11.99;66.39;100264.09;4981443;28;119866;-75
2022/11/24 08:01:07;;;;;;;78.63;36.90;;;;;;;12.00;66.63;100270.38;4980260;28;120887;-75
2022/11/24 08:03:32;;;;;;;63.08;35.90;;;;;;;12.02;66.37;100280.88;4979126;28;119623;-75
2022/11/24 08:05:59;;;;;;;70.85;36.97;;;;;;;12.03;66.68;100280.41;4986274;28;119561;-75
2022/11/24 08:08:25;;;;;;;68.03;36.28;;;;;;;12.04;66.57;100284.69;4985599;28;119581;-75
2022/11/24 08:10:54;;;;;;;62.10;34.80;;;;;;;12.09;66.18;100291.53;4982840;28;119346;-75
2022/11/24 08:13:19;;;;;;;70.27;36.07;;;;;;;12.07;65.97;100289.25;4984555;28;119784;-75
2022/11/24 08:15:48;;;;;;;65.25;35.03;;;;;;;12.09;66.19;100297.81;4961898;28;119890;-75
2022/11/24 08:18:14;;;;;;;60.75;34.38;;;;;;;12.10;66.13;100299.31;4950390;28;119417;-75
2022/11/24 08:20:40;;;;;;;67.13;35.65;;;;;;;12.09;66.46;100292.31;4982638;28;119324;-75
2022/11/24 08:23:08;;;;;;;65.20;34.50;;;;;;;12.11;66.37;100295.34;4964967;28;120573;-75
2022/11/24 08:25:35;;;;;;;62.35;34.10;;;;;;;12.11;66.03;100289.84;4987503;28;119291;-75
2022/11/24 08:28:02;;;;;;;64.18;34.97;;;;;;;12.12;66.24;100299.59;4965229;28;119932;-75
2022/11/24 08:30:29;;;;;;;61.22;34.40;;;;;;;12.14;66.13;100305.41;4983387;28;119623;-75
2022/11/24 08:32:58;;;;;;;59.78;34.22;;;;;;;12.15;66.14;100306.16;4964155;28;121001;-75
2022/11/24 08:35:24;;;;;;;60.10;34.23;;;;;;;12.13;66.20;100303.88;4983766;28;120053;-75
2022/11/24 08:37:49;;;;;;;63.90;34.00;;;;;;;12.19;66.00;100302.00;4983493;28;119336;-75
2022/11/24 08:40:16;;;;;;;53.45;33.08;;;;;;;12.21;66.20;100310.53;4961544;28;119533;-75
2022/11/24 08:42:41;;;;;;;55.40;31.73;;;;;;;12.23;65.89;100313.56;4983127;28;119519;-75
2022/11/24 08:45:07;;;;;;;53.60;32.30;;;;;;;12.29;66.01;100324.66;4965140;28;120707;-75
2022/11/24 08:47:33;;;;;;;58.30;32.13;;;;;;;12.27;66.17;100316.88;4967212;28;120047;-75
2022/11/24 08:49:59;;;;;;;57.78;33.10;;;;;;;12.35;66.06;100339.31;4983356;28;119991;-75
2022/11/24 08:52:24;;;;;;;55.33;32.63;;;;;;;12.36;65.69;100337.31;4981693;28;120095;-75
2022/11/24 08:54:50;;;;;;;58.13;32.77;;;;;;;12.38;66.10;100332.84;4966242;28;119470;-75
2022/11/24 08:57:16;;;;;;;56.10;33.67;;;;;;;12.41;65.78;100333.91;4986750;28;119693;-75
2022/11/24 08:59:42;;;;;;;59.97;32.85;;;;;;;12.43;65.81;100339.69;4968060;28;119706;-75
2022/11/24 09:02:12;;;;;;;55.47;32.63;;;;;;;12.45;65.75;100339.97;4986436;28;119723;-75
2022/11/24 09:04:38;;;;;;;52.13;33.20;;;;;;;12.42;65.93;100336.19;4985921;28;119881;-75
2022/11/24 09:07:04;;;;;;;56.53;32.55;;;;;;;12.46;65.88;100339.50;4985945;28;119715;-75
2022/11/24 09:09:30;;;;;;;55.67;32.88;;;;;;;12.45;65.70;100348.22;4990077;28;119452;-75
2022/11/24 09:11:56;;;;;;;54.97;33.23;;;;;;;12.44;65.79;100343.97;4952298;28;119906;-77
2022/11/24 09:14:21;;;;;;;55.20;32.50;;;;;;;12.45;65.76;100346.25;4968958;28;119765;-77
2022/11/24 09:16:47;;;;;;;59.75;33.78;;;;;;;12.46;65.69;100344.25;4986364;28;119728;-77
2022/11/24 09:19:13;;;;;;;58.77;33.37;;;;;;;12.44;65.80;100338.47;4965444;28;120200;-77
2022/11/24 09:21:39;;;;;;;56.28;33.85;;;;;;;12.46;65.74;100327.75;4984710;28;119759;-77
2022/11/24 09:24:06;;;;;;;54.78;32.75;;;;;;;12.49;65.63;100337.81;4986155;28;119801;-77
2022/11/24 09:26:34;;;;;;;53.63;32.90;;;;;;;12.48;65.91;100328.03;4968565;28;119937;-77
2022/11/24 09:29:02;;;;;;;57.50;33.00;;;;;;;12.52;65.39;100334.09;4986722;28;119737;-77
2022/11/24 09:31:34;;;;;;;55.83;32.90;;;;;;;12.50;65.78;100336.56;4989916;28;119351;-77
2022/11/24 09:34:01;;;;;;;56.53;33.30;;;;;;;12.50;66.13;100342.84;4965553;28;119970;-77
2022/11/24 09:36:28;;;;;;;54.15;32.03;;;;;;;12.55;66.27;100349.69;4985592;28;119514;-77
2022/11/24 09:38:54;;;;;;;60.30;32.95;;;;;;;12.60;65.98;100351.78;4985294;28;120123;-77
2022/11/24 09:41:48;;;;;;;52.97;31.33;;;;;;;12.65;66.07;100364.88;4950886;28;119665;-77
2022/11/24 09:44:17;;;;;;;51.97;31.98;;;;;;;12.69;65.69;100361.94;4986065;28;119973;-77
2022/11/24 09:46:46;;;;;;;54.72;31.95;;;;;;;12.73;65.98;100366.03;4967244;28;122724;-77
2022/11/24 09:49:29;;;;;;;51.45;31.00;;;;;;;12.72;65.87;100364.50;4968608;28;119566;-77
2022/11/24 09:51:55;;;;;;;52.45;30.90;;;;;;;12.81;65.38;100371.94;4955892;28;119564;-77
2022/11/24 09:54:27;;;;;;;54.47;30.50;;;;;;;12.84;65.19;100382.00;4989395;28;119529;-77
2022/11/24 09:57:12;;;;;;;53.85;29.85;;;;;;;12.84;65.62;100382.00;4966060;28;119626;-77
2022/11/24 09:59:40;;;;;;;52.92;30.15;;;;;;;12.84;65.42;100388.25;4980989;28;120521;-77
2022/11/24 10:02:11;;;;;;;52.78;29.90;;;;;;;12.84;65.41;100388.25;4972337;28;119507;-77
2022/11/24 10:04:45;;;;;;;47.55;29.67;;;;;;;12.84;65.13;100393.75;4967650;28;119863;-77
2022/11/24 10:07:28;;;;;;;52.10;29.60;;;;;;;12.85;65.34;100395.28;4985499;28;119803;-77
2022/11/24 10:10:16;;;;;;;49.60;29.17;;;;;;;12.87;65.28;100403.81;4983728;28;119457;-77
2022/11/24 10:12:50;;;;;;;47.43;28.97;;;;;;;12.86;64.95;100394.03;4982995;28;119841;-77
2022/11/24 10:15:17;;;;;;;49.80;30.13;;;;;;;12.85;64.87;100389.78;4949076;28;119980;-77
2022/11/24 10:18:10;;;;;;;52.53;29.67;;;;;;;12.83;65.15;100397.75;4970198;28;119944;-77
2022/11/24 10:20:45;;;;;;;52.17;30.40;;;;;;;12.85;65.79;100389.78;4967517;28;120737;-77
2022/11/24 10:23:22;;;;;;;50.17;29.25;;;;;;;12.89;65.61;100401.34;4985612;28;119663;-77
2022/11/24 10:25:50;;;;;;;52.90;29.40;;;;;;;12.89;65.25;100398.59;4984213;28;119517;-77
2022/11/24 10:28:16;;;;;;;51.63;29.85;;;;;;;12.92;65.55;100410.66;4965988;28;119348;-77
2022/11/24 10:30:42;;;;;;;51.10;28.88;;;;;;;12.84;65.15;100399.28;4984209;28;119840;-77
2022/11/24 10:33:19;;;;;;;54.13;29.23;;;;;;;12.86;64.85;100402.31;4966278;28;119345;-77
2022/11/24 10:35:47;;;;;;;47.08;30.10;;;;;;;12.85;65.35;100403.53;4986452;28;119881;-77
2022/11/24 10:38:13;;;;;;;50.13;28.65;;;;;;;12.84;65.17;100415.78;4959621;28;119839;-77
2022/11/24 10:41:07;;;;;;;48.78;29.73;;;;;;;12.83;65.88;100410.75;4980632;28;119312;-77
2022/11/24 10:43:33;;;;;;;50.17;29.52;;;;;;;12.82;65.14;100423.75;4982844;28;119124;-76
2022/11/24 10:46:14;;;;;;;53.17;29.58;;;;;;;12.72;65.68;100408.53;4988147;28;119383;-77
2022/11/24 10:48:46;;;;;;;53.35;29.35;;;;;;;12.78;65.77;100428.69;4983654;28;120060;-77
2022/11/24 10:51:29;;;;;;;50.83;30.48;;;;;;;12.82;66.19;100426.50;4967475;28;119482;-77
2022/11/24 10:54:01;;;;;;;49.72;28.80;;;;;;;12.83;65.61;100425.28;4985690;28;119316;-77
2022/11/24 10:56:37;;;;;;;48.92;28.85;;;;;;;12.82;65.99;100420.25;4965088;28;120771;-77
2022/11/24 10:59:29;;;;;;;50.33;28.88;;;;;;;12.92;65.65;100427.19;4982318;28;120042;-77
2022/11/24 11:01:55;;;;;;;49.40;28.45;;;;;;;12.96;65.45;100425.00;4976363;28;119409;-77
2022/11/24 11:04:26;;;;;;;47.47;28.63;;;;;;;12.99;65.68;100426.03;4946398;28;119507;-77
2022/11/24 11:07:05;;;;;;;51.03;27.77;;;;;;;12.98;65.74;100413.50;4982542;28;119466;-77
2022/11/24 11:09:32;;;;;;;46.95;26.25;;;;;;;12.98;65.36;100419.78;4983067;28;119999;-75
2022/11/24 11:12:09;;;;;;;44.45;25.73;;;;;;;13.00;65.51;100422.81;4982135;28;119487;-77
2022/11/24 11:14:38;;;;;;;46.03;26.00;;;;;;;13.02;65.54;100420.38;4975502;28;120816;-77